createdAt,value
2019-06-20T00:02:32.337Z,99.50
2019-06-20T00:07:34.901Z,99.03
2019-06-20T00:12:37.488Z,99.20
2019-06-20T00:17:40.045Z,100.67
2019-06-20T00:22:42.614Z,101.43
2019-06-20T00:27:45.202Z,100.27
2019-06-20T00:32:47.768Z,102.60
2019-06-20T00:37:50.329Z,104.17
2019-06-20T00:42:52.927Z,106.17
2019-06-20T00:47:55.468Z,106.57
2019-06-20T00:52:58.060Z,104.90
2019-06-20T00:58:00.627Z,104.50
2019-06-20T01:03:03.184Z,105.57
2019-06-20T01:08:05.754Z,104.27
2019-06-20T01:13:08.348Z,105.00
2019-06-20T01:18:10.932Z,105.20
2019-06-20T01:23:13.476Z,104.13
2019-06-20T01:28:16.051Z,103.83
2019-06-20T01:33:18.611Z,102.10
2019-06-20T01:38:21.183Z,103.47
2019-06-20T01:43:23.767Z,106.37
2019-06-20T01:48:26.325Z,107.27
2019-06-20T01:53:28.893Z,107.07
2019-06-20T01:58:31.511Z,107.43
2019-06-20T02:03:34.051Z,107.10
2019-06-20T02:08:36.608Z,105.60
2019-06-20T02:13:39.194Z,104.70
2019-06-20T02:18:41.750Z,103.53
2019-06-20T02:23:44.319Z,103.97
2019-06-20T02:28:46.902Z,102.63
2019-06-20T02:33:49.467Z,101.87
2019-06-20T02:38:52.037Z,101.70
2019-06-20T02:43:54.617Z,101.50
2019-06-20T02:48:57.172Z,102.03
2019-06-20T02:53:59.741Z,102.00
2019-06-20T02:59:02.325Z,103.57
2019-06-20T03:04:04.882Z,105.33
2019-06-20T03:09:07.458Z,105.87
2019-06-20T03:14:10.045Z,106.50
2019-06-20T03:19:12.599Z,106.37
2019-06-20T03:24:15.167Z,106.60
2019-06-20T03:29:17.747Z,105.87
2019-06-20T03:34:20.307Z,106.80
2019-06-20T03:39:22.876Z,107.50
2019-06-20T03:44:25.547Z,107.30
2019-06-20T03:49:28.005Z,106.13
2019-06-20T03:54:30.570Z,102.73
2019-06-20T03:59:33.147Z,102.23
2019-06-20T04:04:35.697Z,102.80
2019-06-20T04:09:38.270Z,101.93
2019-06-20T04:14:40.841Z,103.50
2019-06-20T04:19:43.408Z,104.13
2019-06-20T04:24:45.948Z,102.63
2019-06-20T04:29:48.534Z,101.83
2019-06-20T04:34:51.078Z,100.60
2019-06-20T04:39:53.648Z,101.40
2019-06-20T04:44:56.212Z,101.83
2019-06-20T04:49:58.766Z,103.07
2019-06-20T04:55:01.423Z,102.83
2019-06-20T05:00:03.902Z,103.87
2019-06-20T05:05:06.470Z,102.33
2019-06-20T05:10:09.022Z,101.00
2019-06-20T05:15:11.585Z,100.83
2019-06-20T05:20:14.142Z,101.33
2019-06-20T05:25:16.698Z,103.33
2019-06-20T05:30:19.271Z,102.97
2019-06-20T05:35:21.822Z,103.93
2019-06-20T05:40:24.458Z,103.73
2019-06-20T05:45:26.959Z,104.23
2019-06-20T05:50:29.509Z,104.50
2019-06-20T05:55:32.933Z,104.43
2019-06-20T06:00:34.646Z,106.27
2019-06-20T06:05:37.266Z,106.47
2019-06-20T06:10:39.768Z,106.87
2019-06-20T06:15:42.424Z,105.93
2019-06-20T06:20:45.110Z,104.67
2019-06-20T06:25:47.451Z,104.57
2019-06-20T06:30:50.025Z,103.63
2019-06-20T06:35:52.582Z,103.57
2019-06-20T06:40:55.140Z,102.03
2019-06-20T06:45:57.870Z,102.57
2019-06-20T06:51:00.278Z,101.23
2019-06-20T06:56:02.842Z,100.17
2019-06-20T07:01:05.411Z,99.53
2019-06-20T07:06:07.960Z,98.47
2019-06-20T07:11:10.528Z,99.00
2019-06-20T07:16:13.106Z,98.30
2019-06-20T07:21:15.667Z,100.67
2019-06-20T07:26:18.223Z,99.70
2019-06-20T07:31:20.797Z,102.17
2019-06-20T07:36:23.344Z,99.03
2019-06-20T07:41:25.912Z,99.17
2019-06-20T07:46:28.514Z,102.23
2019-06-20T07:51:31.057Z,102.43
2019-06-20T07:56:33.609Z,102.80
2019-06-20T08:01:36.175Z,103.57
2019-06-20T08:06:38.730Z,104.20
2019-06-20T08:11:41.326Z,103.00
2019-06-20T08:16:43.878Z,103.77
2019-06-20T08:21:46.425Z,103.33
2019-06-20T08:26:48.990Z,104.00
2019-06-20T08:31:51.563Z,103.53
2019-06-20T08:36:54.119Z,101.07
2019-06-20T08:41:57.141Z,100.67
2019-06-20T08:47:00.660Z,100.23
2019-06-20T08:52:01.803Z,99.80
2019-06-20T08:57:05.708Z,100.73
2019-06-20T09:02:06.951Z,101.10
2019-06-20T09:07:09.497Z,100.67
2019-06-20T09:12:12.069Z,99.47
2019-06-20T09:17:14.634Z,102.53
2019-06-20T09:22:17.190Z,103.20
2019-06-20T09:27:19.750Z,103.60
2019-06-20T09:32:22.325Z,105.17
2019-06-20T09:37:24.877Z,107.23
2019-06-20T15:26:16.175Z,0.00
2019-06-20T15:28:19.111Z,0.00
2019-06-20T15:33:21.697Z,11.20
2019-06-20T15:40:38.930Z,0.00
2019-06-20T15:45:41.525Z,10.33
2019-06-20T15:50:44.133Z,20.53
2019-06-20T15:55:46.738Z,30.60
2019-06-20T16:00:49.348Z,40.47
2019-06-20T16:05:51.960Z,48.40
2019-06-20T16:10:54.569Z,57.73
2019-06-20T16:15:57.181Z,65.70
2019-06-20T16:20:59.891Z,74.73
2019-06-20T16:26:02.406Z,84.83
2019-06-20T16:31:08.733Z,92.90
2019-06-20T16:42:30.167Z,0.00
2019-06-20T17:16:11.677Z,0.00
2019-06-20T17:21:14.209Z,12.10
2019-06-20T17:26:16.754Z,22.10
2019-06-20T17:31:19.321Z,30.07
2019-06-20T17:36:21.858Z,39.07
2019-06-20T17:41:24.402Z,49.10
2019-06-20T17:46:26.969Z,59.93
2019-06-20T17:51:29.497Z,70.33
2019-06-20T17:56:32.110Z,80.40
2019-06-20T18:01:36.090Z,88.93
2019-06-20T18:06:37.136Z,100.03
2019-06-20T18:11:39.759Z,96.93
2019-06-20T18:16:42.209Z,97.13
2019-06-20T18:21:44.748Z,99.93
2019-06-20T18:26:47.278Z,99.97
2019-06-20T18:31:49.834Z,100.10
2019-06-20T18:36:52.380Z,99.80
2019-06-20T18:41:54.893Z,99.60
2019-06-20T18:46:57.482Z,99.50
2019-06-20T18:52:00.047Z,100.17
2019-06-20T18:57:02.613Z,98.27
2019-06-20T19:02:05.091Z,100.03
2019-06-20T19:07:07.657Z,100.57
2019-06-20T19:12:10.132Z,99.80
2019-06-20T19:17:14.727Z,101.47
2019-06-20T19:22:15.291Z,100.00
2019-06-20T19:27:17.841Z,100.80
2019-06-20T19:32:20.299Z,101.27
2019-06-20T19:37:22.944Z,101.97
2019-06-20T19:42:25.429Z,100.93
2019-06-20T19:47:27.918Z,101.30
2019-06-20T19:52:30.480Z,101.37
2019-06-20T19:57:32.980Z,100.57
2019-06-20T20:02:35.522Z,101.30
2019-06-20T20:07:38.037Z,100.50
2019-06-20T20:12:40.668Z,102.63
2019-06-20T20:17:43.102Z,100.03
2019-06-20T20:22:45.650Z,99.00
2019-06-20T20:27:48.152Z,98.60
2019-06-20T20:32:50.691Z,99.40
2019-06-20T20:37:53.212Z,99.50
2019-06-20T20:42:55.742Z,99.23
2019-06-20T20:47:58.283Z,98.83
2019-06-20T20:53:00.804Z,96.97
2019-06-20T20:58:03.338Z,96.37
2019-06-20T21:03:07.410Z,96.57
2019-06-20T21:08:08.388Z,99.60
2019-06-20T21:13:10.920Z,101.00
2019-06-20T21:18:13.472Z,101.83
2019-06-20T21:23:15.974Z,102.87
2019-06-20T21:28:18.503Z,100.70
2019-06-20T21:33:21.044Z,98.23
2019-06-20T21:38:23.557Z,99.10
2019-06-20T21:43:26.086Z,100.67
2019-06-20T21:48:28.627Z,101.43
2019-06-20T21:53:31.139Z,100.50
2019-06-20T21:58:33.663Z,99.60
2019-06-20T22:03:36.200Z,96.53
2019-06-20T22:08:38.717Z,93.43
2019-06-20T22:13:41.248Z,94.53
2019-06-20T22:18:43.778Z,97.23
2019-06-20T22:23:46.288Z,98.77
2019-06-20T22:28:48.817Z,96.43
2019-06-20T22:33:51.350Z,95.40
2019-06-20T22:38:53.865Z,93.80
2019-06-20T22:43:56.393Z,93.20
2019-06-20T22:48:58.927Z,91.60
2019-06-20T22:54:01.440Z,94.37
2019-06-20T22:59:03.967Z,93.97
2019-06-20T23:04:06.499Z,93.97
2019-06-20T23:09:09.010Z,92.80
2019-06-20T23:14:11.533Z,92.40
2019-06-20T23:19:14.073Z,95.57
2019-06-20T23:24:16.581Z,94.90
2019-06-20T23:29:19.110Z,96.67
2019-06-20T23:34:21.664Z,98.40
2019-06-20T23:39:24.155Z,98.37
2019-06-20T23:44:26.678Z,99.13
2019-06-20T23:49:29.212Z,103.07
2019-06-20T23:54:31.725Z,100.97
2019-06-20T23:59:34.252Z,102.53
